PWSweather.com
Personal Weather Stations
Station Observations
BREAKEY01
Lévis, Breakeyville, QC G6z 7G7

LévisBreakeyville, QC G6z 7G7

Lat: 46.681, Lon: -71.224

Elevation: 328

Station Type: Davis Vantage Pro2

http://www.meteobreakey.com

Latest ConditionsUpdated 5:17:03 AM EDT Sunday, Jul 31, 2016
Currently Today's Max Today's Min Today's Average
Temperature 53.2°F11.8°C 60.3°F15.7°C 53.2°F11.8°C 56.2°F13.4°C
Dew Point 51.6°F10.9°C 55.8°F13.2°C 51.6°F10.9°C 53.5°F11.9°C
Winds Calm Calm 2.9 mph SSW4.7 kmh SSW - 0.5 mph 0.8 kmh
Wind Gusts -- 2.9 mph4.7 kmh - -
Humidity 94% 94% 84% 91%
Pressure 30.09 in1019.0 mb 30.09 in1019.0 mb 30.07 in1018.3 mb -
Hour Temp Dew Point Humidity Winds Wind Gusts Pressure Precip Precip Rate Daily Precip Total
05:17 AM 53.2°F11.8°C 51.6°F10.9°C 94% Calm Calm -- 30.09 in1019.0 mb - 0.00 in0.0 mm 0.00 in0.0 mm
05:12 AM 53.2°F11.8°C 51.6°F10.9°C 94% Calm Calm -- 30.09 in1019.0 mb - 0.00 in0.0 mm 0.00 in0.0 mm
05:07 AM 53.4°F11.9°C 51.8°F11.0°C 94% Calm Calm 0.9 mph1.4 kmh 30.09 in1019.0 mb - 0.00 in0.0 mm 0.00 in0.0 mm
05:02 AM 53.4°F11.9°C 51.8°F11.0°C 94% 0.9 mph SSW1.4 kmh SSW -- 30.09 in1019.0 mb - 0.00 in0.0 mm 0.00 in0.0 mm
04:57 AM 53.6°F12.0°C 52.0°F11.1°C 94% 0.9 mph SSW1.4 kmh SSW 2.0 mph3.2 kmh 30.09 in1019.0 mb - 0.00 in0.0 mm 0.00 in0.0 mm
04:52 AM 53.8°F12.1°C 52.2°F11.2°C 94% 0.9 mph SSW1.4 kmh SSW -- 30.09 in1019.0 mb - 0.00 in0.0 mm 0.00 in0.0 mm
04:47 AM 54.0°F12.2°C 52.3°F11.3°C 94% 0.9 mph SSW1.4 kmh SSW -- 30.09 in1019.0 mb - 0.00 in0.0 mm 0.00 in0.0 mm
04:42 AM 54.0°F12.2°C 52.3°F11.3°C 94% 2.0 mph SSW3.2 kmh SSW 2.0 mph3.2 kmh 30.08 in1018.6 mb - 0.00 in0.0 mm 0.00 in0.0 mm
04:37 AM 54.0°F12.2°C 52.3°F11.3°C 94% 2.0 mph SSW3.2 kmh SSW 2.9 mph4.7 kmh 30.08 in1018.6 mb - 0.00 in0.0 mm 0.00 in0.0 mm
04:32 AM 54.0°F12.2°C 52.3°F11.3°C 94% 2.0 mph SSW3.2 kmh SSW 0.9 mph1.4 kmh 30.08 in1018.6 mb - 0.00 in0.0 mm 0.00 in0.0 mm
04:27 AM 54.0°F12.2°C 52.3°F11.3°C 94% 2.0 mph SSW3.2 kmh SSW 2.9 mph4.7 kmh 30.08 in1018.6 mb - 0.00 in0.0 mm 0.00 in0.0 mm
04:22 AM 54.0°F12.2°C 52.3°F11.3°C 94% 0.9 mph SSW1.4 kmh SSW 2.0 mph3.2 kmh 30.08 in1018.6 mb - 0.00 in0.0 mm 0.00 in0.0 mm
04:17 AM 54.0°F12.2°C 52.3°F11.3°C 94% 2.0 mph SSW3.2 kmh SSW -- 30.08 in1018.6 mb - 0.00 in0.0 mm 0.00 in0.0 mm
04:12 AM 54.0°F12.2°C 52.3°F11.3°C 94% 2.0 mph SSW3.2 kmh SSW 2.0 mph3.2 kmh 30.08 in1018.6 mb - 0.00 in0.0 mm 0.00 in0.0 mm
04:07 AM 54.0°F12.2°C 52.0°F11.1°C 93% 2.9 mph SSW4.7 kmh SSW 2.9 mph4.7 kmh 30.08 in1018.6 mb - 0.00 in0.0 mm 0.00 in0.0 mm
04:02 AM 54.0°F12.2°C 52.3°F11.3°C 94% 2.0 mph SSW3.2 kmh SSW 0.9 mph1.4 kmh 30.08 in1018.6 mb - 0.00 in0.0 mm 0.00 in0.0 mm
03:57 AM 54.0°F12.2°C 52.0°F11.1°C 93% 0.9 mph SW1.4 kmh SW 2.9 mph4.7 kmh 30.08 in1018.6 mb - 0.00 in0.0 mm 0.00 in0.0 mm
03:52 AM 54.1°F12.3°C 52.2°F11.2°C 93% Calm Calm -- 30.08 in1018.6 mb - 0.00 in0.0 mm 0.00 in0.0 mm
03:47 AM 54.1°F12.3°C 52.2°F11.2°C 93% Calm Calm -- 30.08 in1018.6 mb - 0.00 in0.0 mm 0.00 in0.0 mm
03:42 AM 54.1°F12.3°C 52.2°F11.2°C 93% Calm Calm -- 30.08 in1018.6 mb - 0.00 in0.0 mm 0.00 in0.0 mm
03:37 AM 54.3°F12.4°C 52.3°F11.3°C 93% Calm Calm -- 30.08 in1018.6 mb - 0.00 in0.0 mm 0.00 in0.0 mm
03:32 AM 54.3°F12.4°C 52.3°F11.3°C 93% Calm Calm -- 30.08 in1018.6 mb - 0.00 in0.0 mm 0.00 in0.0 mm
03:27 AM 54.5°F12.5°C 52.5°F11.4°C 93% Calm Calm -- 30.08 in1018.6 mb - 0.00 in0.0 mm 0.00 in0.0 mm
03:22 AM 54.7°F12.6°C 52.3°F11.3°C 92% Calm Calm -- 30.08 in1018.6 mb - 0.00 in0.0 mm 0.00 in0.0 mm
03:17 AM 54.7°F12.6°C 52.3°F11.3°C 92% 0.9 mph SW1.4 kmh SW -- 30.08 in1018.6 mb - 0.00 in0.0 mm 0.00 in0.0 mm
03:12 AM 54.9°F12.7°C 52.5°F11.4°C 92% 0.9 mph SW1.4 kmh SW -- 30.08 in1018.6 mb - 0.00 in0.0 mm 0.00 in0.0 mm
03:07 AM 54.9°F12.7°C 52.5°F11.4°C 92% 0.9 mph SW1.4 kmh SW 0.9 mph1.4 kmh 30.08 in1018.6 mb - 0.00 in0.0 mm 0.00 in0.0 mm
03:02 AM 55.0°F12.8°C 52.7°F11.5°C 92% 2.0 mph SW3.2 kmh SW 0.9 mph1.4 kmh 30.08 in1018.6 mb - 0.00 in0.0 mm 0.00 in0.0 mm
02:57 AM 55.0°F12.8°C 52.5°F11.4°C 91% 0.9 mph SW1.4 kmh SW 2.9 mph4.7 kmh 30.08 in1018.6 mb - 0.00 in0.0 mm 0.00 in0.0 mm
02:52 AM 55.2°F12.9°C 52.7°F11.5°C 91% 0.9 mph WSW1.4 kmh WSW -- 30.08 in1018.6 mb - 0.00 in0.0 mm 0.00 in0.0 mm
02:47 AM 55.4°F13.0°C 52.5°F11.4°C 90% Calm Calm -- 30.08 in1018.6 mb - 0.00 in0.0 mm 0.00 in0.0 mm
02:42 AM 55.8°F13.2°C 52.9°F11.6°C 90% Calm Calm -- 30.08 in1018.6 mb - 0.00 in0.0 mm 0.00 in0.0 mm
02:37 AM 55.9°F13.3°C 53.1°F11.7°C 90% Calm Calm -- 30.08 in1018.6 mb - 0.00 in0.0 mm 0.00 in0.0 mm
02:32 AM 56.1°F13.4°C 53.2°F11.8°C 90% Calm Calm 2.0 mph3.2 kmh 30.08 in1018.6 mb - 0.00 in0.0 mm 0.00 in0.0 mm
02:27 AM 56.5°F13.6°C 53.6°F12.0°C 90% Calm Calm -- 30.07 in1018.3 mb - 0.00 in0.0 mm 0.00 in0.0 mm
02:22 AM 56.7°F13.7°C 53.8°F12.1°C 90% Calm Calm -- 30.07 in1018.3 mb - 0.00 in0.0 mm 0.00 in0.0 mm
02:17 AM 56.8°F13.8°C 54.0°F12.2°C 90% Calm Calm -- 30.08 in1018.6 mb - 0.00 in0.0 mm 0.00 in0.0 mm
02:12 AM 57.0°F13.9°C 54.1°F12.3°C 90% 0.9 mph WSW1.4 kmh WSW -- 30.08 in1018.6 mb - 0.00 in0.0 mm 0.00 in0.0 mm
02:07 AM 57.0°F13.9°C 54.1°F12.3°C 90% 0.9 mph WSW1.4 kmh WSW -- 30.08 in1018.6 mb - 0.00 in0.0 mm 0.00 in0.0 mm
02:02 AM 57.0°F13.9°C 54.1°F12.3°C 90% 0.9 mph WSW1.4 kmh WSW -- 30.08 in1018.6 mb - 0.00 in0.0 mm 0.00 in0.0 mm
01:57 AM 57.2°F14.0°C 54.3°F12.4°C 90% Calm Calm -- 30.08 in1018.6 mb - 0.00 in0.0 mm 0.00 in0.0 mm
01:52 AM 57.4°F14.1°C 54.1°F12.3°C 89% Calm Calm -- 30.08 in1018.6 mb - 0.00 in0.0 mm 0.00 in0.0 mm
01:47 AM 57.6°F14.2°C 54.3°F12.4°C 89% Calm Calm -- 30.08 in1018.6 mb - 0.00 in0.0 mm 0.00 in0.0 mm
01:42 AM 57.7°F14.3°C 54.5°F12.5°C 89% Calm Calm -- 30.08 in1018.6 mb - 0.00 in0.0 mm 0.00 in0.0 mm
01:37 AM 57.9°F14.4°C 54.7°F12.6°C 89% Calm Calm -- 30.08 in1018.6 mb - 0.00 in0.0 mm 0.00 in0.0 mm
01:32 AM 58.3°F14.6°C 55.4°F13.0°C 90% Calm Calm -- 30.08 in1018.6 mb - 0.00 in0.0 mm 0.00 in0.0 mm
01:27 AM 58.3°F14.6°C 55.4°F13.0°C 90% Calm Calm -- 30.08 in1018.6 mb - 0.00 in0.0 mm 0.00 in0.0 mm
01:22 AM 58.5°F14.7°C 55.6°F13.1°C 90% 0.9 mph WSW1.4 kmh WSW -- 30.08 in1018.6 mb - 0.00 in0.0 mm 0.00 in0.0 mm
01:17 AM 58.5°F14.7°C 55.6°F13.1°C 90% Calm Calm 0.9 mph1.4 kmh 30.08 in1018.6 mb - 0.00 in0.0 mm 0.00 in0.0 mm
01:12 AM 58.5°F14.7°C 55.6°F13.1°C 90% Calm Calm -- 30.09 in1019.0 mb - 0.00 in0.0 mm 0.00 in0.0 mm
01:07 AM 58.5°F14.7°C 55.2°F12.9°C 89% Calm Calm -- 30.09 in1019.0 mb - 0.00 in0.0 mm 0.00 in0.0 mm
01:02 AM 58.5°F14.7°C 55.2°F12.9°C 89% Calm Calm -- 30.09 in1019.0 mb - 0.00 in0.0 mm 0.00 in0.0 mm
12:57 AM 58.5°F14.7°C 54.9°F12.7°C 88% Calm Calm -- 30.09 in1019.0 mb - 0.00 in0.0 mm 0.00 in0.0 mm
12:52 AM 58.6°F14.8°C 55.0°F12.8°C 88% Calm Calm -- 30.09 in1019.0 mb - 0.00 in0.0 mm 0.00 in0.0 mm
12:47 AM 58.6°F14.8°C 55.0°F12.8°C 88% Calm Calm -- 30.08 in1018.6 mb - 0.00 in0.0 mm 0.00 in0.0 mm
12:42 AM 58.8°F14.9°C 55.2°F12.9°C 88% Calm Calm -- 30.09 in1019.0 mb - 0.00 in0.0 mm 0.00 in0.0 mm
12:37 AM 59.2°F15.1°C 55.4°F13.0°C 87% 0.9 mph WSW1.4 kmh WSW -- 30.09 in1019.0 mb - 0.00 in0.0 mm 0.00 in0.0 mm
12:32 AM 59.4°F15.2°C 55.4°F13.0°C 87% 0.9 mph WSW1.4 kmh WSW 0.9 mph1.4 kmh 30.09 in1019.0 mb - 0.00 in0.0 mm 0.00 in0.0 mm
12:27 AM 59.5°F15.3°C 55.6°F13.1°C 87% Calm Calm -- 30.09 in1019.0 mb - 0.00 in0.0 mm 0.00 in0.0 mm
12:22 AM 59.7°F15.4°C 55.6°F13.1°C 86% Calm Calm -- 30.09 in1019.0 mb - 0.00 in0.0 mm 0.00 in0.0 mm
12:17 AM 59.9°F15.5°C 55.8°F13.2°C 86% Calm Calm -- 30.09 in1019.0 mb - 0.00 in0.0 mm 0.00 in0.0 mm
12:12 AM 60.1°F15.6°C 55.6°F13.1°C 85% Calm Calm -- 30.09 in1019.0 mb - 0.00 in0.0 mm 0.00 in0.0 mm
12:07 AM 60.3°F15.7°C 55.4°F13.0°C 84% Calm Calm -- 30.09 in1019.0 mb - 0.00 in0.0 mm 0.00 in0.0 mm
12:02 AM 60.3°F15.7°C 55.4°F13.0°C 84% Calm Calm -- 30.09 in1019.0 mb - 0.00 in0.0 mm 0.00 in0.0 mm